EKVJ/STA METAR and TAF weather

Enter ICAO airport designator
Station Type Date Time Source
EKVJ METAR 2019/02/22 13:50 UTC NOAA

EKVJ 221350Z 15012KT 9999 SCT018 BKN070 05/01 Q1041


Station Type Date Time Source
EKVJ Decoded METAR 2019/02/22 13:50 UTC NOAA

Stauning Lufthavn, Denmark (EKVJ) 56-00N 008-21E 5M
Feb 22, 2019 - 08:50 AM EST / 2019.02.22 1350 UTC
Wind: from the SSE (150 degrees) at 14 MPH (12 KT):0
Visibility: greater than 7 mile(s):0
Sky conditions: mostly cloudy
Temperature: 41 F (5 C)
Dew Point: 33 F (1 C)
Relative Humidity: 75%
Pressure (altimeter): 30.74 in. Hg (1041 hPa)
ob: EKVJ 221350Z 15012KT 9999 SCT018 BKN070 05/01 Q1041
cycle: 14

Station Type Date Time Source
EKVJ TAF UTC NOAA

Error!


Example: see airport list